Jamestown, ND

7:19 PM CDT on July 04, 2015 (GMT -0500)
Leapaldt Addition | | Change Station
CLOSE
Current Station
Personal Weather Station
Location: Jamestown, ND
Elevation: 1486 ft
Nearby Weather Stations

Elev 1486 ft 46.93 °N, 98.69 °W | Updated 9 minutes ago

Clear
Clear
83.7 °F
Feels Like 89 °F
N
2.7
Wind Variable Wind from SW

Today
High -- | Low -- °F
--% Chance of Precip.
Yesterday
High -- | Low -- °F
Precip. -- in
5:45 AM 9:32 PM
Waning Gibbous, 89% visible
Pressure 29.71 in
Visibility 8.0 miles
Clouds Clear
Heat Index 89 °F
Dew Point 71 °F
Humidity 66%
Rainfall 0.00 in
Snow Depth Not available.
UV 2 out of 12
Pollen 5.20 out of 12
Air Quality Not available.
Flu Activity Not available.
METAR KJMS 042356Z AUTO 18010KT 8SM VCTS CLR 28/21 A2973 RMK AO2 LTG DSNT SW AND W SLP061 T02780206 10306 20278 56016

More Conditions Fewer Conditions

Pressure 29.71 in
Visibility 8.0 miles
Clouds Clear
Heat Index 89 °F
Dew Point 71 °F
Humidity 66%
Rainfall 0.00 in
Snow Depth Not available.
UV 2 out of 12
Pollen 5.20 out of 12
Air Quality Not available.
Flu Activity Not available.
METAR KJMS 042356Z AUTO 18010KT 8SM VCTS CLR 28/21 A2973 RMK AO2 LTG DSNT SW AND W SLP061 T02780206 10306 20278 56016

More Conditions Fewer Conditions

10-Day Weather Forecast

×

Almanac

Astronomy

Jul. 04, 2015 Rise Set
Actual Time
Civil Twilight
Nautical Twilight
Astronomical Twilight
Moon
Length of Visible Light
Length of Day
Tomorrow will be .
, % of the Moon is Illuminated

Today's Extremes

State Highs State Lows

Community

WunderPhotos

Upload Photos

1,835,119 photos uploaded!

WunderBlogs® & News

Nearby

Air Quality

  Air Quality AQ Index Pollutant
Not available.

Snow Depth

Station Depth Elevation

Earthquake Activity

City Distance Mag. Time & Date
Minimum magnitude displayed is 2.5.

Coastal Water Temperatures

Place Temperature

Stations

Nearby Weather Stations

Station Location Temp. Windchill Dew Point Humidity Wind Precip. Elev Updated Type